sensor_id;sensor_type;location;lat;lon;timestamp;pressure;altitude;pressure_sealevel;temperature;humidity
11343;BME280;5726;42.160;24.746;2023-06-10T00:01:32;98986.84;;;20.83;100.00
11343;BME280;5726;42.160;24.746;2023-06-10T00:03:59;98987.06;;;20.71;100.00
11343;BME280;5726;42.160;24.746;2023-06-10T00:06:24;98985.50;;;20.70;100.00
11343;BME280;5726;42.160;24.746;2023-06-10T00:08:51;98991.13;;;20.81;100.00
11343;BME280;5726;42.160;24.746;2023-06-10T00:11:16;98993.06;;;21.10;100.00
11343;BME280;5726;42.160;24.746;2023-06-10T00:13:41;98980.50;;;21.02;100.00
11343;BME280;5726;42.160;24.746;2023-06-10T00:16:07;98984.34;;;20.97;100.00
11343;BME280;5726;42.160;24.746;2023-06-10T00:18:32;98988.03;;;21.11;100.00
11343;BME280;5726;42.160;24.746;2023-06-10T00:20:58;98987.94;;;20.79;100.00
11343;BME280;5726;42.160;24.746;2023-06-10T00:23:29;98982.03;;;20.99;100.00
11343;BME280;5726;42.160;24.746;2023-06-10T00:25:58;98981.38;;;21.09;100.00
11343;BME280;5726;42.160;24.746;2023-06-10T00:28:24;98981.59;;;21.26;100.00
11343;BME280;5726;42.160;24.746;2023-06-10T00:30:50;98990.22;;;21.28;100.00
11343;BME280;5726;42.160;24.746;2023-06-10T00:33:16;98996.97;;;21.41;100.00
11343;BME280;5726;42.160;24.746;2023-06-10T00:35:41;98987.69;;;21.75;99.61
11343;BME280;5726;42.160;24.746;2023-06-10T00:38:07;98982.97;;;21.43;100.00
11343;BME280;5726;42.160;24.746;2023-06-10T00:40:33;98982.91;;;21.36;100.00
11343;BME280;5726;42.160;24.746;2023-06-10T00:43:04;98988.59;;;21.24;100.00
11343;BME280;5726;42.160;24.746;2023-06-10T00:45:29;98978.59;;;21.35;100.00
11343;BME280;5726;42.160;24.746;2023-06-10T00:47:55;98981.31;;;21.64;100.00
11343;BME280;5726;42.160;24.746;2023-06-10T00:50:21;98979.66;;;21.56;100.00
11343;BME280;5726;42.160;24.746;2023-06-10T00:52:46;98976.50;;;21.51;100.00
11343;BME280;5726;42.160;24.746;2023-06-10T00:55:15;98987.19;;;21.66;98.83
11343;BME280;5726;42.160;24.746;2023-06-10T00:57:41;98982.84;;;21.61;99.46
11343;BME280;5726;42.160;24.746;2023-06-10T01:00:10;98986.78;;;21.64;98.98
11343;BME280;5726;42.160;24.746;2023-06-10T01:02:36;98975.03;;;21.60;98.03
11343;BME280;5726;42.160;24.746;2023-06-10T01:05:02;98983.63;;;21.62;98.39
11343;BME280;5726;42.160;24.746;2023-06-10T01:07:37;98989.88;;;21.62;97.77
11343;BME280;5726;42.160;24.746;2023-06-10T01:10:29;98989.13;;;21.65;97.71
11343;BME280;5726;42.160;24.746;2023-06-10T01:13:05;98993.66;;;21.55;97.36
11343;BME280;5726;42.160;24.746;2023-06-10T01:15:34;98981.88;;;21.47;98.49
11343;BME280;5726;42.160;24.746;2023-06-10T01:18:04;98995.25;;;21.56;97.38
11343;BME280;5726;42.160;24.746;2023-06-10T01:20:34;98999.47;;;21.82;95.45
11343;BME280;5726;42.160;24.746;2023-06-10T01:23:02;98997.59;;;21.57;97.11
11343;BME280;5726;42.160;24.746;2023-06-10T01:25:29;98996.91;;;21.63;97.28
11343;BME280;5726;42.160;24.746;2023-06-10T01:33:42;98996.38;;;21.87;95.05
11343;BME280;5726;42.160;24.746;2023-06-10T01:36:08;98990.88;;;21.80;95.13
11343;BME280;5726;42.160;24.746;2023-06-10T01:38:40;99002.03;;;21.68;95.47
11343;BME280;5726;42.160;24.746;2023-06-10T01:41:08;99002.09;;;21.75;96.27
11343;BME280;5726;42.160;24.746;2023-06-10T01:43:34;98993.59;;;21.80;95.64
11343;BME280;5726;42.160;24.746;2023-06-10T01:46:00;98998.09;;;21.66;96.21
11343;BME280;5726;42.160;24.746;2023-06-10T01:48:26;98997.06;;;21.77;94.67
11343;BME280;5726;42.160;24.746;2023-06-10T01:50:52;98997.03;;;21.45;97.78
11343;BME280;5726;42.160;24.746;2023-06-10T01:53:17;99001.44;;;21.53;97.09
11343;BME280;5726;42.160;24.746;2023-06-10T01:55:43;98994.63;;;21.69;96.01
11343;BME280;5726;42.160;24.746;2023-06-10T01:58:08;99004.06;;;21.75;95.64
11343;BME280;5726;42.160;24.746;2023-06-10T02:00:33;98999.59;;;21.96;93.46
11343;BME280;5726;42.160;24.746;2023-06-10T02:02:59;98996.63;;;21.75;95.88
11343;BME280;5726;42.160;24.746;2023-06-10T02:05:24;98996.25;;;21.73;95.46
11343;BME280;5726;42.160;24.746;2023-06-10T02:07:50;98992.31;;;21.71;95.38
11343;BME280;5726;42.160;24.746;2023-06-10T02:10:16;99000.94;;;21.76;95.44
11343;BME280;5726;42.160;24.746;2023-06-10T02:12:41;99004.50;;;21.80;94.91
11343;BME280;5726;42.160;24.746;2023-06-10T02:15:07;99008.75;;;21.78;95.01
11343;BME280;5726;42.160;24.746;2023-06-10T02:17:32;99008.72;;;21.74;94.86
11343;BME280;5726;42.160;24.746;2023-06-10T02:19:57;99009.25;;;21.87;93.50
11343;BME280;5726;42.160;24.746;2023-06-10T02:22:24;99010.50;;;21.96;92.93
11343;BME280;5726;42.160;24.746;2023-06-10T02:24:50;99011.59;;;21.88;93.40
11343;BME280;5726;42.160;24.746;2023-06-10T02:27:16;99015.09;;;21.85;94.03
11343;BME280;5726;42.160;24.746;2023-06-10T02:29:42;99006.13;;;21.85;93.92
11343;BME280;5726;42.160;24.746;2023-06-10T02:32:08;99018.22;;;21.87;93.40
11343;BME280;5726;42.160;24.746;2023-06-10T02:34:34;99011.34;;;22.00;92.89
11343;BME280;5726;42.160;24.746;2023-06-10T02:37:01;99008.25;;;22.02;92.62
11343;BME280;5726;42.160;24.746;2023-06-10T02:39:27;99007.47;;;22.01;92.64
11343;BME280;5726;42.160;24.746;2023-06-10T02:41:53;99013.41;;;22.10;92.14
11343;BME280;5726;42.160;24.746;2023-06-10T02:44:18;99008.31;;;22.08;92.07
11343;BME280;5726;42.160;24.746;2023-06-10T02:46:44;99015.38;;;22.13;91.74
11343;BME280;5726;42.160;24.746;2023-06-10T02:49:10;99020.91;;;22.20;91.28
11343;BME280;5726;42.160;24.746;2023-06-10T02:51:36;99019.78;;;22.21;90.90
11343;BME280;5726;42.160;24.746;2023-06-10T02:54:02;99022.06;;;22.19;90.72
11343;BME280;5726;42.160;24.746;2023-06-10T02:56:28;99023.34;;;22.25;90.59
11343;BME280;5726;42.160;24.746;2023-06-10T02:58:53;99031.53;;;22.25;90.45
11343;BME280;5726;42.160;24.746;2023-06-10T03:01:18;99019.28;;;22.15;90.58
11343;BME280;5726;42.160;24.746;2023-06-10T03:03:45;99028.84;;;22.32;89.76
11343;BME280;5726;42.160;24.746;2023-06-10T03:06:12;99027.22;;;22.24;89.74
11343;BME280;5726;42.160;24.746;2023-06-10T03:08:38;99036.56;;;22.23;90.04
11343;BME280;5726;42.160;24.746;2023-06-10T03:11:04;99031.09;;;22.23;89.01
11343;BME280;5726;42.160;24.746;2023-06-10T03:13:30;99040.63;;;22.39;88.51
11343;BME280;5726;42.160;24.746;2023-06-10T03:15:55;99050.03;;;22.45;86.40
11343;BME280;5726;42.160;24.746;2023-06-10T03:18:20;99037.59;;;21.75;91.58
11343;BME280;5726;42.160;24.746;2023-06-10T03:20:48;99039.06;;;21.69;93.09
11343;BME280;5726;42.160;24.746;2023-06-10T03:23:14;99032.88;;;21.72;92.92
11343;BME280;5726;42.160;24.746;2023-06-10T03:25:41;99036.63;;;21.94;90.49
11343;BME280;5726;42.160;24.746;2023-06-10T03:28:06;99034.34;;;21.66;92.12
11343;BME280;5726;42.160;24.746;2023-06-10T03:30:32;99028.84;;;21.60;92.98
11343;BME280;5726;42.160;24.746;2023-06-10T03:32:57;99040.75;;;21.77;91.80
11343;BME280;5726;42.160;24.746;2023-06-10T03:35:23;99042.41;;;21.89;91.69
11343;BME280;5726;42.160;24.746;2023-06-10T03:37:48;99026.75;;;21.82;92.19
11343;BME280;5726;42.160;24.746;2023-06-10T03:40:13;99027.63;;;21.57;93.63
11343;BME280;5726;42.160;24.746;2023-06-10T03:42:39;99030.72;;;21.88;93.11
11343;BME280;5726;42.160;24.746;2023-06-10T03:45:05;99033.03;;;21.86;92.07
11343;BME280;5726;42.160;24.746;2023-06-10T03:47:37;99042.84;;;22.27;89.26
11343;BME280;5726;42.160;24.746;2023-06-10T03:50:03;99039.41;;;21.97;91.11
11343;BME280;5726;42.160;24.746;2023-06-10T03:52:30;99042.50;;;21.96;91.51
11343;BME280;5726;42.160;24.746;2023-06-10T03:54:55;99037.44;;;21.98;91.46
11343;BME280;5726;42.160;24.746;2023-06-10T03:57:21;99039.06;;;22.02;91.15
11343;BME280;5726;42.160;24.746;2023-06-10T03:59:46;99036.56;;;22.23;88.75
11343;BME280;5726;42.160;24.746;2023-06-10T04:02:11;99041.19;;;22.19;88.82
11343;BME280;5726;42.160;24.746;2023-06-10T04:04:37;99038.16;;;22.24;88.92
11343;BME280;5726;42.160;24.746;2023-06-10T04:07:04;99035.13;;;22.32;88.05
11343;BME280;5726;42.160;24.746;2023-06-10T04:09:29;99044.53;;;22.38;87.79
11343;BME280;5726;42.160;24.746;2023-06-10T04:11:55;99040.59;;;22.36;87.83
11343;BME280;5726;42.160;24.746;2023-06-10T04:14:20;99032.19;;;22.55;86.30
11343;BME280;5726;42.160;24.746;2023-06-10T04:16:45;99032.75;;;22.31;86.77
11343;BME280;5726;42.160;24.746;2023-06-10T04:19:11;99039.72;;;22.25;87.17
11343;BME280;5726;42.160;24.746;2023-06-10T04:21:37;99031.44;;;22.18;87.83
11343;BME280;5726;42.160;24.746;2023-06-10T04:24:02;99040.22;;;22.01;88.72
11343;BME280;5726;42.160;24.746;2023-06-10T04:26:28;99036.56;;;22.23;88.33
11343;BME280;5726;42.160;24.746;2023-06-10T04:28:53;99024.50;;;21.91;90.05
11343;BME280;5726;42.160;24.746;2023-06-10T04:31:19;99037.03;;;22.28;88.87
11343;BME280;5726;42.160;24.746;2023-06-10T04:33:44;99028.34;;;22.62;85.85
11343;BME280;5726;42.160;24.746;2023-06-10T04:36:10;99035.41;;;22.24;88.81
11343;BME280;5726;42.160;24.746;2023-06-10T04:38:35;99033.56;;;22.35;88.77
11343;BME280;5726;42.160;24.746;2023-06-10T04:41:01;99027.88;;;22.54;89.38
11343;BME280;5726;42.160;24.746;2023-06-10T04:43:27;99026.72;;;22.55;85.99
11343;BME280;5726;42.160;24.746;2023-06-10T04:45:54;99021.69;;;22.60;84.36
11343;BME280;5726;42.160;24.746;2023-06-10T04:48:20;99021.69;;;22.60;86.09
11343;BME280;5726;42.160;24.746;2023-06-10T04:50:45;99023.34;;;22.75;86.47
11343;BME280;5726;42.160;24.746;2023-06-10T04:53:10;99028.13;;;22.88;87.29
11343;BME280;5726;42.160;24.746;2023-06-10T04:55:36;99030.84;;;22.85;84.58
11343;BME280;5726;42.160;24.746;2023-06-10T04:58:01;99029.44;;;23.01;84.75
11343;BME280;5726;42.160;24.746;2023-06-10T05:00:27;99018.97;;;23.13;84.10
11343;BME280;5726;42.160;24.746;2023-06-10T05:02:53;99022.94;;;23.26;82.37
11343;BME280;5726;42.160;24.746;2023-06-10T05:05:18;99030.78;;;23.28;82.48
11343;BME280;5726;42.160;24.746;2023-06-10T05:07:43;99028.84;;;23.35;82.09
11343;BME280;5726;42.160;24.746;2023-06-10T05:10:09;99028.03;;;23.28;81.95
11343;BME280;5726;42.160;24.746;2023-06-10T05:12:35;99031.09;;;23.16;82.28
11343;BME280;5726;42.160;24.746;2023-06-10T05:15:00;99038.22;;;23.27;82.19
11343;BME280;5726;42.160;24.746;2023-06-10T05:17:27;99031.94;;;23.27;83.89
11343;BME280;5726;42.160;24.746;2023-06-10T05:19:53;99030.06;;;23.41;83.64
11343;BME280;5726;42.160;24.746;2023-06-10T05:22:18;99030.28;;;23.86;82.25
11343;BME280;5726;42.160;24.746;2023-06-10T05:24:44;99026.78;;;23.93;80.28
11343;BME280;5726;42.160;24.746;2023-06-10T05:27:10;99026.72;;;23.75;81.62
11343;BME280;5726;42.160;24.746;2023-06-10T05:29:36;99022.38;;;23.64;81.86
11343;BME280;5726;42.160;24.746;2023-06-10T05:32:01;99026.72;;;23.75;82.02
11343;BME280;5726;42.160;24.746;2023-06-10T05:34:31;99022.50;;;23.99;78.99
11343;BME280;5726;42.160;24.746;2023-06-10T05:36:56;99024.38;;;23.77;79.07
11343;BME280;5726;42.160;24.746;2023-06-10T05:39:22;99032.25;;;23.96;78.66
11343;BME280;5726;42.160;24.746;2023-06-10T05:41:47;99022.88;;;24.04;77.27
11343;BME280;5726;42.160;24.746;2023-06-10T05:44:13;99028.00;;;24.16;77.06
11343;BME280;5726;42.160;24.746;2023-06-10T05:46:38;99027.59;;;24.14;76.58
11343;BME280;5726;42.160;24.746;2023-06-10T05:49:04;99025.66;;;24.11;77.09
11343;BME280;5726;42.160;24.746;2023-06-10T05:51:29;99033.06;;;24.03;77.32
11343;BME280;5726;42.160;24.746;2023-06-10T05:53:55;99034.72;;;24.36;75.08
11343;BME280;5726;42.160;24.746;2023-06-10T05:56:20;99037.00;;;24.20;75.16
11343;BME280;5726;42.160;24.746;2023-06-10T05:58:48;99040.53;;;24.31;75.68
11343;BME280;5726;42.160;24.746;2023-06-10T06:01:13;99037.81;;;24.31;75.03
11343;BME280;5726;42.160;24.746;2023-06-10T06:03:39;99044.13;;;24.35;75.76
11343;BME280;5726;42.160;24.746;2023-06-10T06:06:05;99039.81;;;24.51;73.72
11343;BME280;5726;42.160;24.746;2023-06-10T06:08:30;99044.88;;;24.28;76.24
11343;BME280;5726;42.160;24.746;2023-06-10T06:10:56;99050.72;;;24.20;76.87
11343;BME280;5726;42.160;24.746;2023-06-10T06:13:21;99047.16;;;24.02;78.55
11343;BME280;5726;42.160;24.746;2023-06-10T06:15:46;99053.75;;;23.84;80.11
11343;BME280;5726;42.160;24.746;2023-06-10T06:18:12;99047.06;;;23.78;80.09
11343;BME280;5726;42.160;24.746;2023-06-10T06:20:37;99048.66;;;23.82;80.72
11343;BME280;5726;42.160;24.746;2023-06-10T06:23:03;99054.13;;;23.89;80.34
11343;BME280;5726;42.160;24.746;2023-06-10T06:25:28;99045.00;;;23.61;81.56
11343;BME280;5726;42.160;24.746;2023-06-10T06:27:54;99051.78;;;23.81;80.89
11343;BME280;5726;42.160;24.746;2023-06-10T06:30:19;99045.56;;;24.01;80.35
11343;BME280;5726;42.160;24.746;2023-06-10T06:32:45;99043.53;;;23.77;82.48
11343;BME280;5726;42.160;24.746;2023-06-10T06:35:10;99045.47;;;23.70;83.60
11343;BME280;5726;42.160;24.746;2023-06-10T06:37:36;99041.25;;;23.93;83.40
11343;BME280;5726;42.160;24.746;2023-06-10T06:40:01;99033.50;;;24.19;82.11
11343;BME280;5726;42.160;24.746;2023-06-10T06:42:27;99034.72;;;24.36;81.50
11343;BME280;5726;42.160;24.746;2023-06-10T06:44:53;99035.91;;;24.73;85.34
11343;BME280;5726;42.160;24.746;2023-06-10T06:47:18;99025.34;;;24.82;85.00
11343;BME280;5726;42.160;24.746;2023-06-10T06:49:48;99027.69;;;24.83;77.70
11343;BME280;5726;42.160;24.746;2023-06-10T06:52:14;99037.84;;;24.72;80.94
11343;BME280;5726;42.160;24.746;2023-06-10T06:54:40;99026.41;;;25.40;83.49
11343;BME280;5726;42.160;24.746;2023-06-10T06:57:06;99025.81;;;25.97;77.58
11343;BME280;5726;42.160;24.746;2023-06-10T06:59:32;99036.69;;;26.14;74.13
11343;BME280;5726;42.160;24.746;2023-06-10T07:01:58;99026.38;;;26.32;71.71
11343;BME280;5726;42.160;24.746;2023-06-10T07:04:24;99022.75;;;26.48;74.20
11343;BME280;5726;42.160;24.746;2023-06-10T07:06:49;99026.00;;;26.80;68.46
11343;BME280;5726;42.160;24.746;2023-06-10T07:09:15;99013.38;;;26.86;70.01
11343;BME280;5726;42.160;24.746;2023-06-10T07:11:40;99015.50;;;27.12;68.41
11343;BME280;5726;42.160;24.746;2023-06-10T07:14:06;99009.84;;;26.82;69.62
11343;BME280;5726;42.160;24.746;2023-06-10T07:16:32;99005.47;;;26.88;69.75
11343;BME280;5726;42.160;24.746;2023-06-10T07:18:57;99003.75;;;27.08;72.20
11343;BME280;5726;42.160;24.746;2023-06-10T07:21:23;99003.13;;;27.30;68.29
11343;BME280;5726;42.160;24.746;2023-06-10T07:23:48;98999.94;;;26.95;66.96
11343;BME280;5726;42.160;24.746;2023-06-10T07:26:14;98999.25;;;26.84;68.17
11343;BME280;5726;42.160;24.746;2023-06-10T07:28:40;98995.84;;;27.10;69.00
11343;BME280;5726;42.160;24.746;2023-06-10T07:31:07;98989.31;;;27.34;67.60
11343;BME280;5726;42.160;24.746;2023-06-10T07:33:33;98993.75;;;27.57;65.75
11343;BME280;5726;42.160;24.746;2023-06-10T07:35:58;98993.56;;;27.71;63.82
11343;BME280;5726;42.160;24.746;2023-06-10T07:38:25;98997.25;;;27.91;62.24
11343;BME280;5726;42.160;24.746;2023-06-10T07:40:50;98989.00;;;27.61;62.15
11343;BME280;5726;42.160;24.746;2023-06-10T07:43:16;98997.25;;;27.61;64.00
11343;BME280;5726;42.160;24.746;2023-06-10T07:45:42;98995.84;;;27.80;63.97
11343;BME280;5726;42.160;24.746;2023-06-10T07:48:07;98984.66;;;28.20;61.30
11343;BME280;5726;42.160;24.746;2023-06-10T07:50:33;98992.50;;;28.21;60.39
11343;BME280;5726;42.160;24.746;2023-06-10T07:52:59;98987.25;;;28.53;60.79
11343;BME280;5726;42.160;24.746;2023-06-10T07:55:24;98983.84;;;28.45;60.19
11343;BME280;5726;42.160;24.746;2023-06-10T07:57:51;98984.63;;;28.46;61.53
11343;BME280;5726;42.160;24.746;2023-06-10T08:00:17;98989.06;;;28.63;59.47
11343;BME280;5726;42.160;24.746;2023-06-10T08:02:43;98989.97;;;28.56;59.46
11343;BME280;5726;42.160;24.746;2023-06-10T08:05:08;98995.28;;;28.70;59.36
11343;BME280;5726;42.160;24.746;2023-06-10T08:07:34;98984.53;;;29.18;56.71
11343;BME280;5726;42.160;24.746;2023-06-10T08:10:00;98982.38;;;28.87;55.68
11343;BME280;5726;42.160;24.746;2023-06-10T08:12:25;98976.34;;;28.92;57.25
11343;BME280;5726;42.160;24.746;2023-06-10T08:14:51;98976.28;;;28.76;55.54
11343;BME280;5726;42.160;24.746;2023-06-10T08:17:16;98979.03;;;29.18;55.71
11343;BME280;5726;42.160;24.746;2023-06-10T08:19:42;98978.53;;;29.23;54.85
11343;BME280;5726;42.160;24.746;2023-06-10T08:22:07;98978.16;;;29.01;55.15
11343;BME280;5726;42.160;24.746;2023-06-10T08:24:32;98975.75;;;29.23;53.97
11343;BME280;5726;42.160;24.746;2023-06-10T08:26:58;98981.38;;;29.19;54.10
11343;BME280;5726;42.160;24.746;2023-06-10T08:29:23;98978.97;;;29.41;55.24
11343;BME280;5726;42.160;24.746;2023-06-10T08:31:49;98983.22;;;29.64;52.18
11343;BME280;5726;42.160;24.746;2023-06-10T08:34:14;98979.88;;;29.92;52.71
11343;BME280;5726;42.160;24.746;2023-06-10T08:36:40;98978.44;;;30.03;52.59
11343;BME280;5726;42.160;24.746;2023-06-10T08:39:05;98983.06;;;30.26;51.20
11343;BME280;5726;42.160;24.746;2023-06-10T08:41:35;98983.31;;;30.31;50.36
11343;BME280;5726;42.160;24.746;2023-06-10T08:46:37;98972.59;;;29.82;52.95
11343;BME280;5726;42.160;24.746;2023-06-10T08:49:05;98969.78;;;30.01;52.27
11343;BME280;5726;42.160;24.746;2023-06-10T08:51:34;98965.22;;;30.27;51.96
11343;BME280;5726;42.160;24.746;2023-06-10T08:54:04;98964.84;;;30.44;49.98
11343;BME280;5726;42.160;24.746;2023-06-10T08:56:32;98967.16;;;30.61;49.66
11343;BME280;5726;42.160;24.746;2023-06-10T08:59:01;98957.03;;;30.71;48.46
11343;BME280;5726;42.160;24.746;2023-06-10T09:01:27;98956.59;;;30.72;47.72
11343;BME280;5726;42.160;24.746;2023-06-10T09:03:54;98960.41;;;30.62;48.40
11343;BME280;5726;42.160;24.746;2023-06-10T09:06:20;98958.06;;;30.61;47.91
11343;BME280;5726;42.160;24.746;2023-06-10T09:08:45;98953.84;;;30.56;47.36
11343;BME280;5726;42.160;24.746;2023-06-10T09:11:11;98953.03;;;30.08;47.43
11343;BME280;5726;42.160;24.746;2023-06-10T09:13:37;98949.19;;;29.67;48.49
11343;BME280;5726;42.160;24.746;2023-06-10T09:16:02;98948.09;;;30.00;48.02
11343;BME280;5726;42.160;24.746;2023-06-10T09:18:28;98942.56;;;29.84;48.48
11343;BME280;5726;42.160;24.746;2023-06-10T09:20:54;98949.47;;;29.92;46.07
11343;BME280;5726;42.160;24.746;2023-06-10T09:23:19;98944.94;;;29.82;46.94
11343;BME280;5726;42.160;24.746;2023-06-10T09:25:45;98939.56;;;29.75;46.10
11343;BME280;5726;42.160;24.746;2023-06-10T09:28:14;98943.53;;;29.74;45.32
11343;BME280;5726;42.160;24.746;2023-06-10T09:30:40;98939.09;;;29.61;44.86
11343;BME280;5726;42.160;24.746;2023-06-10T09:33:15;98948.78;;;29.49;44.15
11343;BME280;5726;42.160;24.746;2023-06-10T09:35:48;98941.47;;;29.78;44.86
11343;BME280;5726;42.160;24.746;2023-06-10T09:38:18;98947.66;;;29.66;45.86
11343;BME280;5726;42.160;24.746;2023-06-10T09:40:49;98939.88;;;29.96;44.60
11343;BME280;5726;42.160;24.746;2023-06-10T09:43:15;98939.41;;;29.28;53.20
11343;BME280;5726;42.160;24.746;2023-06-10T09:45:40;98935.41;;;28.44;56.41
11343;BME280;5726;42.160;24.746;2023-06-10T09:48:06;98949.28;;;28.15;58.29
11343;BME280;5726;42.160;24.746;2023-06-10T09:50:41;98941.47;;;27.80;60.06
11343;BME280;5726;42.160;24.746;2023-06-10T09:53:07;98944.81;;;27.68;59.92
11343;BME280;5726;42.160;24.746;2023-06-10T09:55:33;98936.22;;;27.33;58.96
11343;BME280;5726;42.160;24.746;2023-06-10T09:57:59;98936.06;;;27.14;58.47
11343;BME280;5726;42.160;24.746;2023-06-10T10:00:25;98947.47;;;26.72;59.86
11343;BME280;5726;42.160;24.746;2023-06-10T10:02:52;98951.44;;;26.68;60.52
11343;BME280;5726;42.160;24.746;2023-06-10T10:05:20;98946.63;;;26.79;60.40
11343;BME280;5726;42.160;24.746;2023-06-10T10:07:46;98933.00;;;27.05;60.09
11343;BME280;5726;42.160;24.746;2023-06-10T10:10:13;98940.47;;;27.04;60.55
11343;BME280;5726;42.160;24.746;2023-06-10T10:12:40;98939.53;;;27.47;58.94
11343;BME280;5726;42.160;24.746;2023-06-10T10:15:10;98941.38;;;27.61;59.09
11343;BME280;5726;42.160;24.746;2023-06-10T10:18:13;98947.66;;;27.91;58.38
11343;BME280;5726;42.160;24.746;2023-06-10T10:20:50;98937.72;;;27.97;57.13
11343;BME280;5726;42.160;24.746;2023-06-10T10:26:38;98930.56;;;27.99;57.83
11343;BME280;5726;42.160;24.746;2023-06-10T10:29:10;98938.59;;;28.17;57.26
11343;BME280;5726;42.160;24.746;2023-06-10T10:31:37;98932.91;;;28.27;56.16
11343;BME280;5726;42.160;24.746;2023-06-10T10:34:13;98933.59;;;28.35;56.83
11343;BME280;5726;42.160;24.746;2023-06-10T10:36:40;98931.31;;;28.52;57.19
11343;BME280;5726;42.160;24.746;2023-06-10T10:39:07;98929.63;;;28.58;56.24
11343;BME280;5726;42.160;24.746;2023-06-10T10:41:33;98927.78;;;28.75;54.52
11343;BME280;5726;42.160;24.746;2023-06-10T10:43:59;98920.34;;;28.72;55.60
11343;BME280;5726;42.160;24.746;2023-06-10T10:46:25;98920.06;;;28.86;55.23
11343;BME280;5726;42.160;24.746;2023-06-10T10:48:54;98929.19;;;28.83;53.76
11343;BME280;5726;42.160;24.746;2023-06-10T10:51:22;98930.47;;;28.78;53.24
11343;BME280;5726;42.160;24.746;2023-06-10T10:54:11;98921.00;;;28.98;51.59
11343;BME280;5726;42.160;24.746;2023-06-10T10:56:37;98925.59;;;28.86;53.03
11343;BME280;5726;42.160;24.746;2023-06-10T10:59:06;98921.97;;;28.69;53.81
11343;BME280;5726;42.160;24.746;2023-06-10T11:01:42;98923.53;;;28.70;53.41
11343;BME280;5726;42.160;24.746;2023-06-10T11:04:11;98920.44;;;28.65;54.03
11343;BME280;5726;42.160;24.746;2023-06-10T11:06:37;98919.06;;;28.53;54.23
11343;BME280;5726;42.160;24.746;2023-06-10T11:09:26;98916.09;;;28.44;54.47
11343;BME280;5726;42.160;24.746;2023-06-10T11:11:52;98915.91;;;28.06;54.67
11343;BME280;5726;42.160;24.746;2023-06-10T11:14:26;98912.69;;;27.58;56.43
11343;BME280;5726;42.160;24.746;2023-06-10T11:16:56;98923.72;;;27.58;55.50
11343;BME280;5726;42.160;24.746;2023-06-10T11:19:35;98901.75;;;27.51;54.82
11343;BME280;5726;42.160;24.746;2023-06-10T11:22:06;98909.03;;;27.35;55.01
11343;BME280;5726;42.160;24.746;2023-06-10T11:24:32;98908.34;;;27.28;55.64
11343;BME280;5726;42.160;24.746;2023-06-10T11:27:22;98902.69;;;27.38;54.97
11343;BME280;5726;42.160;24.746;2023-06-10T11:32:20;98907.47;;;27.64;53.01
11343;BME280;5726;42.160;24.746;2023-06-10T11:34:52;98902.03;;;27.60;54.01
11343;BME280;5726;42.160;24.746;2023-06-10T11:37:18;98902.91;;;27.80;53.95
11343;BME280;5726;42.160;24.746;2023-06-10T11:39:44;98900.41;;;27.89;53.28
11343;BME280;5726;42.160;24.746;2023-06-10T11:42:10;98893.41;;;28.11;52.73
11343;BME280;5726;42.160;24.746;2023-06-10T11:44:36;98890.22;;;28.12;52.93
11343;BME280;5726;42.160;24.746;2023-06-10T11:47:03;98883.34;;;28.24;52.53
11343;BME280;5726;42.160;24.746;2023-06-10T11:49:29;98887.78;;;28.41;52.05
11343;BME280;5726;42.160;24.746;2023-06-10T11:51:54;98880.09;;;28.29;52.65
11343;BME280;5726;42.160;24.746;2023-06-10T11:54:20;98880.94;;;28.26;53.09
11343;BME280;5726;42.160;24.746;2023-06-10T11:56:47;98872.91;;;28.35;53.53
11343;BME280;5726;42.160;24.746;2023-06-10T11:59:13;98874.94;;;28.31;53.63
11343;BME280;5726;42.160;24.746;2023-06-10T12:01:43;98869.38;;;28.34;53.97
11343;BME280;5726;42.160;24.746;2023-06-10T12:04:14;98868.03;;;28.42;53.21
11343;BME280;5726;42.160;24.746;2023-06-10T12:11:42;98864.13;;;28.62;52.79
11343;BME280;5726;42.160;24.746;2023-06-10T12:14:08;98869.09;;;28.71;52.08
11343;BME280;5726;42.160;24.746;2023-06-10T12:16:34;98863.25;;;28.88;51.59
11343;BME280;5726;42.160;24.746;2023-06-10T12:19:03;98852.00;;;28.79;52.02
11343;BME280;5726;42.160;24.746;2023-06-10T12:21:30;98854.31;;;29.00;52.05
11343;BME280;5726;42.160;24.746;2023-06-10T12:24:09;98853.97;;;29.17;50.93
11343;BME280;5726;42.160;24.746;2023-06-10T12:26:42;98854.22;;;29.42;49.97
11343;BME280;5726;42.160;24.746;2023-06-10T12:34:34;98840.81;;;29.25;50.90
11343;BME280;5726;42.160;24.746;2023-06-10T12:37:01;98836.91;;;29.03;50.77
11343;BME280;5726;42.160;24.746;2023-06-10T12:39:30;98840.41;;;29.23;50.38
11343;BME280;5726;42.160;24.746;2023-06-10T12:41:55;98839.66;;;29.42;50.08
11343;BME280;5726;42.160;24.746;2023-06-10T12:44:31;98837.53;;;29.30;48.82
11343;BME280;5726;42.160;24.746;2023-06-10T12:46:57;98833.59;;;28.92;49.99
11343;BME280;5726;42.160;24.746;2023-06-10T12:49:22;98835.00;;;29.00;50.68
11343;BME280;5726;42.160;24.746;2023-06-10T12:51:48;98824.72;;;29.00;51.90
11343;BME280;5726;42.160;24.746;2023-06-10T12:54:13;98823.63;;;28.79;52.67
11343;BME280;5726;42.160;24.746;2023-06-10T12:56:39;98828.13;;;28.69;52.72
11343;BME280;5726;42.160;24.746;2023-06-10T12:59:04;98839.13;;;28.73;52.05
11343;BME280;5726;42.160;24.746;2023-06-10T13:01:31;98836.09;;;28.44;52.58
11343;BME280;5726;42.160;24.746;2023-06-10T13:03:57;98828.88;;;28.28;52.66
11343;BME280;5726;42.160;24.746;2023-06-10T13:06:22;98827.66;;;28.09;53.67
11343;BME280;5726;42.160;24.746;2023-06-10T13:08:48;98817.28;;;28.17;53.54
11343;BME280;5726;42.160;24.746;2023-06-10T13:11:13;98818.84;;;28.18;53.27
11343;BME280;5726;42.160;24.746;2023-06-10T13:13:39;98813.78;;;28.36;53.36
11343;BME280;5726;42.160;24.746;2023-06-10T13:16:05;98817.00;;;28.53;52.62
11343;BME280;5726;42.160;24.746;2023-06-10T13:18:30;98821.91;;;28.42;51.84
11343;BME280;5726;42.160;24.746;2023-06-10T13:21:05;98819.47;;;28.48;52.10
11343;BME280;5726;42.160;24.746;2023-06-10T13:23:30;98810.03;;;28.68;52.12